Time;durP1;ratioP1;P1;durP2;ratioP2;P2;SDS_P1;SDS_P2;PMS_P1;PMS_P2;Temp;Humidity;BMP_temperature;BMP_pressure;BME280_temperature;BME280_humidity;BME280_pressure;Samples;Min_cycle;Max_cycle;Signal;HPM_P1;HPM_P2
2023/12/29 00:00:30;;;;;;;9.23;8.30;;;;;;;;;;5076611;28;20734;-82
2023/12/29 00:02:55;;;;;;;10.17;8.90;;;;;;;;;;5075389;28;20383;-83
2023/12/29 00:05:21;;;;;;;11.07;9.35;;;;;;;;;;5076937;28;20428;-82
2023/12/29 00:07:47;;;;;;;9.18;8.13;;;;;;;;;;5058531;28;20887;-82
2023/12/29 00:10:13;;;;;;;11.00;9.45;;;;;;;;;;5074795;28;20384;-81
2023/12/29 00:12:39;;;;;;;9.25;8.32;;;;;;;;;;5076513;28;20795;-82
2023/12/29 00:15:06;;;;;;;8.60;7.80;;;;;;;;;;5076784;28;20406;-81
2023/12/29 00:17:32;;;;;;;11.88;8.95;;;;;;;;;;5076172;28;20384;-82
2023/12/29 00:19:58;;;;;;;10.43;9.37;;;;;;;;;;5076693;28;20738;-82
2023/12/29 00:22:25;;;;;;;12.23;10.00;;;;;;;;;;5076128;28;20388;-81
2023/12/29 00:24:51;;;;;;;11.05;9.68;;;;;;;;;;5076012;28;20471;-82
2023/12/29 00:27:17;;;;;;;11.75;9.77;;;;;;;;;;5076133;28;20465;-82
2023/12/29 00:29:43;;;;;;;12.27;9.95;;;;;;;;;;5058346;28;20392;-82
2023/12/29 00:32:09;;;;;;;11.65;9.73;;;;;;;;;;5075899;28;20464;-83
2023/12/29 00:34:37;;;;;;;9.80;8.80;;;;;;;;;;5077314;28;20416;-82
2023/12/29 00:37:03;;;;;;;10.40;8.60;;;;;;;;;;5081206;28;20401;-82
2023/12/29 00:39:30;;;;;;;8.85;8.05;;;;;;;;;;5097087;28;20495;-82
2023/12/29 00:41:57;;;;;;;9.50;8.60;;;;;;;;;;5096643;28;20443;-81
2023/12/29 00:44:23;;;;;;;9.38;8.48;;;;;;;;;;5097105;28;20402;-81
2023/12/29 00:46:49;;;;;;;8.90;8.10;;;;;;;;;;5096745;28;20393;-82
2023/12/29 00:49:15;;;;;;;9.43;8.52;;;;;;;;;;5097349;28;20418;-82
2023/12/29 00:51:41;;;;;;;8.70;7.85;;;;;;;;;;5097561;28;20378;-82
2023/12/29 00:54:07;;;;;;;8.50;7.70;;;;;;;;;;5097143;28;20414;-81
2023/12/29 00:56:33;;;;;;;9.00;8.20;;;;;;;;;;5097378;28;20393;-82
2023/12/29 00:58:59;;;;;;;8.15;7.50;;;;;;;;;;5097892;28;20370;-82
2023/12/29 01:01:25;;;;;;;8.40;7.70;;;;;;;;;;5098083;28;20414;-82
2023/12/29 01:03:54;;;;;;;9.52;8.63;;;;;;;;;;5098655;28;20390;-82
2023/12/29 01:06:20;;;;;;;9.18;8.38;;;;;;;;;;5098117;28;20755;-82
2023/12/29 01:08:46;;;;;;;8.13;7.37;;;;;;;;;;5096628;28;20382;-82
2023/12/29 01:11:12;;;;;;;8.18;7.47;;;;;;;;;;5096221;28;20379;-81
2023/12/29 01:13:38;;;;;;;7.93;7.13;;;;;;;;;;5095195;28;20402;-82
2023/12/29 01:16:04;;;;;;;7.63;7.00;;;;;;;;;;5075474;28;20415;-82
2023/12/29 01:18:30;;;;;;;7.13;6.57;;;;;;;;;;5076295;28;20379;-82
2023/12/29 01:20:56;;;;;;;7.80;7.10;;;;;;;;;;5075532;28;20367;-82
2023/12/29 01:23:22;;;;;;;7.60;6.90;;;;;;;;;;5075073;28;20473;-82
2023/12/29 01:25:48;;;;;;;6.85;6.25;;;;;;;;;;5074665;28;20379;-82
2023/12/29 01:28:14;;;;;;;6.72;6.20;;;;;;;;;;5075219;28;20516;-81
2023/12/29 01:30:40;;;;;;;6.63;6.03;;;;;;;;;;5074825;28;20383;-82
2023/12/29 01:33:06;;;;;;;6.63;6.03;;;;;;;;;;5074727;28;20443;-81
2023/12/29 01:35:32;;;;;;;6.93;6.38;;;;;;;;;;5074830;28;20376;-81
2023/12/29 01:37:58;;;;;;;8.17;7.37;;;;;;;;;;5074957;28;20401;-81
2023/12/29 01:40:24;;;;;;;8.20;7.50;;;;;;;;;;5075181;28;20390;-82
2023/12/29 01:42:50;;;;;;;8.93;8.23;;;;;;;;;;5076231;28;20407;-81
2023/12/29 01:45:24;;;;;;;8.38;7.68;;;;;;;;;;5075334;28;20813;-81
2023/12/29 01:47:50;;;;;;;8.98;8.20;;;;;;;;;;5075032;28;20380;-81
2023/12/29 01:50:17;;;;;;;9.40;8.60;;;;;;;;;;5073978;28;20388;-81
2023/12/29 01:52:44;;;;;;;6.82;6.32;;;;;;;;;;5074316;28;20395;-81
2023/12/29 01:55:11;;;;;;;7.38;6.78;;;;;;;;;;5076200;28;20817;-81
2023/12/29 01:57:38;;;;;;;6.82;6.32;;;;;;;;;;5074427;28;20400;-81
2023/12/29 02:00:05;;;;;;;8.00;7.30;;;;;;;;;;5074324;28;20368;-81
2023/12/29 02:02:31;;;;;;;6.85;6.35;;;;;;;;;;5075278;28;20410;-82
2023/12/29 02:04:58;;;;;;;7.70;7.10;;;;;;;;;;5074747;28;20388;-81
2023/12/29 02:07:24;;;;;;;8.02;7.22;;;;;;;;;;5074481;28;20380;-81
2023/12/29 02:09:51;;;;;;;7.43;6.82;;;;;;;;;;5073690;28;20537;-81
2023/12/29 02:12:17;;;;;;;7.57;6.93;;;;;;;;;;5074384;28;20411;-81
2023/12/29 02:14:43;;;;;;;7.70;7.00;;;;;;;;;;5074769;28;20409;-82
2023/12/29 02:17:14;;;;;;;9.73;8.38;;;;;;;;;;5075397;28;20920;-81
2023/12/29 02:19:43;;;;;;;10.60;9.52;;;;;;;;;;5074966;28;20465;-82
2023/12/29 02:22:10;;;;;;;9.02;8.23;;;;;;;;;;5074609;28;20380;-81
2023/12/29 02:24:36;;;;;;;8.68;7.88;;;;;;;;;;5074166;28;20728;-81
2023/12/29 02:27:06;;;;;;;9.02;8.23;;;;;;;;;;5075724;28;20447;-83
2023/12/29 02:29:33;;;;;;;8.80;7.90;;;;;;;;;;5077909;28;20407;-81
2023/12/29 02:32:00;;;;;;;8.53;7.73;;;;;;;;;;5077703;28;20404;-81
2023/12/29 02:34:28;;;;;;;8.75;7.82;;;;;;;;;;5077151;28;20854;-81
2023/12/29 02:36:55;;;;;;;8.35;7.57;;;;;;;;;;5077713;28;20430;-81
2023/12/29 02:39:21;;;;;;;8.85;7.95;;;;;;;;;;5077510;28;20392;-81
2023/12/29 02:41:47;;;;;;;8.23;7.53;;;;;;;;;;5077753;28;20750;-82
2023/12/29 02:44:13;;;;;;;8.02;7.22;;;;;;;;;;5079760;28;20849;-82
2023/12/29 02:46:39;;;;;;;9.03;8.20;;;;;;;;;;5097829;28;20462;-81
2023/12/29 02:49:05;;;;;;;8.68;7.88;;;;;;;;;;5097720;28;20370;-82
2023/12/29 02:51:31;;;;;;;8.00;7.25;;;;;;;;;;5099288;28;20470;-82
2023/12/29 02:53:57;;;;;;;9.13;8.23;;;;;;;;;;5097834;28;20880;-82
2023/12/29 02:56:23;;;;;;;8.95;8.15;;;;;;;;;;5097640;28;20862;-82
2023/12/29 02:58:49;;;;;;;9.83;8.83;;;;;;;;;;5097237;28;20433;-82
2023/12/29 03:01:15;;;;;;;11.10;10.13;;;;;;;;;;5096816;28;20445;-81
2023/12/29 03:03:41;;;;;;;8.85;8.05;;;;;;;;;;5097947;28;20412;-82
2023/12/29 03:06:07;;;;;;;9.50;8.70;;;;;;;;;;5097347;28;20381;-82
2023/12/29 03:08:33;;;;;;;9.05;8.15;;;;;;;;;;5096993;28;20389;-81
2023/12/29 03:10:59;;;;;;;9.45;8.65;;;;;;;;;;5097415;28;20835;-82
2023/12/29 03:13:25;;;;;;;8.93;8.13;;;;;;;;;;5098135;28;20484;-82
2023/12/29 03:15:51;;;;;;;8.95;8.15;;;;;;;;;;5098029;28;20790;-81
2023/12/29 03:18:17;;;;;;;8.77;8.07;;;;;;;;;;5097209;28;20456;-82
2023/12/29 03:20:43;;;;;;;8.63;7.93;;;;;;;;;;5097655;28;20459;-81
2023/12/29 03:23:09;;;;;;;8.88;8.18;;;;;;;;;;5097092;28;20465;-81
2023/12/29 03:25:35;;;;;;;8.70;8.00;;;;;;;;;;5097592;28;20418;-82
2023/12/29 03:28:01;;;;;;;8.93;8.23;;;;;;;;;;5096767;28;20422;-82
2023/12/29 03:30:27;;;;;;;10.10;9.20;;;;;;;;;;5096491;28;20390;-82
2023/12/29 03:32:53;;;;;;;9.20;8.30;;;;;;;;;;5097012;28;20416;-82
2023/12/29 03:35:19;;;;;;;10.10;9.20;;;;;;;;;;5090190;28;20380;-82
2023/12/29 03:37:45;;;;;;;9.55;8.73;;;;;;;;;;5076442;28;20376;-82
2023/12/29 03:40:12;;;;;;;10.18;9.18;;;;;;;;;;5075968;28;20368;-82
2023/12/29 03:42:38;;;;;;;9.73;8.93;;;;;;;;;;5076188;28;20459;-82
2023/12/29 03:45:04;;;;;;;10.25;9.45;;;;;;;;;;5078043;28;20410;-82
2023/12/29 03:47:31;;;;;;;9.77;8.88;;;;;;;;;;5078631;28;20655;-82
2023/12/29 03:49:57;;;;;;;9.73;8.88;;;;;;;;;;5059756;28;20394;-83
2023/12/29 03:52:23;;;;;;;9.13;8.43;;;;;;;;;;5080558;28;20411;-82
2023/12/29 03:54:49;;;;;;;8.68;7.97;;;;;;;;;;5060436;28;20794;-82
2023/12/29 03:57:15;;;;;;;9.27;8.38;;;;;;;;;;5077586;28;20374;-82
2023/12/29 03:59:41;;;;;;;8.90;8.10;;;;;;;;;;5078807;28;20410;-81
2023/12/29 04:02:07;;;;;;;8.38;7.68;;;;;;;;;;5059990;28;20419;-82
2023/12/29 04:04:36;;;;;;;8.35;7.65;;;;;;;;;;5076746;28;20380;-82
2023/12/29 04:07:02;;;;;;;8.52;7.82;;;;;;;;;;5061050;28;20391;-83
2023/12/29 04:09:28;;;;;;;8.85;8.05;;;;;;;;;;5077372;28;20376;-80
2023/12/29 04:11:54;;;;;;;8.97;8.17;;;;;;;;;;5076310;28;20454;-80
2023/12/29 04:14:20;;;;;;;9.30;8.40;;;;;;;;;;5076938;28;20415;-81
2023/12/29 04:16:46;;;;;;;9.75;8.85;;;;;;;;;;5076432;28;20429;-80
2023/12/29 04:19:12;;;;;;;8.68;7.97;;;;;;;;;;5075423;28;20364;-80
2023/12/29 04:21:38;;;;;;;10.02;9.13;;;;;;;;;;5076038;28;20932;-80
2023/12/29 04:24:04;;;;;;;9.82;8.82;;;;;;;;;;5075797;28;20387;-80
2023/12/29 04:26:30;;;;;;;10.68;9.60;;;;;;;;;;5075918;28;20418;-81
2023/12/29 04:28:56;;;;;;;9.85;9.00;;;;;;;;;;5076187;28;20391;-83
2023/12/29 04:31:22;;;;;;;11.73;10.63;;;;;;;;;;5085633;28;20392;-83
2023/12/29 04:33:48;;;;;;;11.23;10.07;;;;;;;;;;5085990;28;20417;-81
2023/12/29 04:36:14;;;;;;;11.27;10.03;;;;;;;;;;5086774;28;20421;-81
2023/12/29 04:38:40;;;;;;;10.93;9.82;;;;;;;;;;5084807;28;20375;-82
2023/12/29 04:41:07;;;;;;;11.07;9.93;;;;;;;;;;5084615;28;20395;-81
2023/12/29 04:43:33;;;;;;;10.77;9.77;;;;;;;;;;5084890;28;20454;-82
2023/12/29 04:46:00;;;;;;;11.13;9.70;;;;;;;;;;5066949;28;20383;-82
2023/12/29 04:48:26;;;;;;;10.73;9.70;;;;;;;;;;5083543;28;20403;-82
2023/12/29 04:50:52;;;;;;;10.85;9.75;;;;;;;;;;5083849;28;20387;-81
2023/12/29 04:53:18;;;;;;;10.10;9.10;;;;;;;;;;5084252;28;20800;-82
2023/12/29 04:55:44;;;;;;;10.48;9.48;;;;;;;;;;5084931;28;20388;-82
2023/12/29 04:58:10;;;;;;;10.35;9.35;;;;;;;;;;5079223;28;20451;-83
2023/12/29 05:00:36;;;;;;;10.50;9.37;;;;;;;;;;5080836;28;20422;-82
2023/12/29 05:03:02;;;;;;;10.43;9.43;;;;;;;;;;5083336;28;20403;-81
2023/12/29 05:05:28;;;;;;;10.48;9.50;;;;;;;;;;5084343;28;20391;-82
2023/12/29 05:07:54;;;;;;;10.57;9.68;;;;;;;;;;5084149;28;20414;-82
2023/12/29 05:10:20;;;;;;;10.00;9.15;;;;;;;;;;5083825;28;20419;-82
2023/12/29 05:12:46;;;;;;;10.45;9.45;;;;;;;;;;5083853;28;20437;-82
2023/12/29 05:15:12;;;;;;;10.85;9.75;;;;;;;;;;5082685;28;20866;-80
2023/12/29 05:17:39;;;;;;;10.40;9.43;;;;;;;;;;5084101;28;20380;-81
2023/12/29 05:20:06;;;;;;;10.15;9.15;;;;;;;;;;5084233;28;20760;-82
2023/12/29 05:22:32;;;;;;;11.20;10.20;;;;;;;;;;5084272;28;20422;-81
2023/12/29 05:25:00;;;;;;;10.32;9.43;;;;;;;;;;5084610;28;20384;-82
2023/12/29 05:27:26;;;;;;;10.10;9.10;;;;;;;;;;5084171;28;20376;-82
2023/12/29 05:29:52;;;;;;;9.80;8.87;;;;;;;;;;5083209;28;20393;-81
2023/12/29 05:32:18;;;;;;;8.82;8.05;;;;;;;;;;5084379;28;20379;-81
2023/12/29 05:34:44;;;;;;;9.48;8.60;;;;;;;;;;5083735;28;20376;-82
2023/12/29 05:37:10;;;;;;;9.05;8.18;;;;;;;;;;5082010;28;20807;-81
2023/12/29 05:39:36;;;;;;;9.23;8.13;;;;;;;;;;5083914;28;20379;-81
2023/12/29 05:42:02;;;;;;;8.50;7.80;;;;;;;;;;5082603;28;20491;-81
2023/12/29 05:44:28;;;;;;;8.68;7.90;;;;;;;;;;5084238;28;20388;-82
2023/12/29 05:46:56;;;;;;;9.38;8.50;;;;;;;;;;5082507;28;20439;-81
2023/12/29 05:49:26;;;;;;;8.57;7.77;;;;;;;;;;5083654;28;20384;-83
2023/12/29 05:51:52;;;;;;;9.90;8.60;;;;;;;;;;5080500;28;20380;-81
2023/12/29 05:54:18;;;;;;;9.38;8.48;;;;;;;;;;5075847;28;20404;-81
2023/12/29 05:56:44;;;;;;;8.93;8.13;;;;;;;;;;5077700;28;20372;-81
2023/12/29 05:59:10;;;;;;;8.87;8.17;;;;;;;;;;5082879;28;20376;-82
2023/12/29 06:01:36;;;;;;;9.05;8.15;;;;;;;;;;5081697;28;20384;-82
2023/12/29 06:04:02;;;;;;;8.90;8.10;;;;;;;;;;5083500;28;20437;-82
2023/12/29 06:06:28;;;;;;;10.10;8.45;;;;;;;;;;5082046;28;20387;-83
2023/12/29 06:08:55;;;;;;;8.98;8.07;;;;;;;;;;5083042;28;20380;-81
2023/12/29 06:11:21;;;;;;;8.35;7.65;;;;;;;;;;5084279;28;20395;-82
2023/12/29 06:13:47;;;;;;;9.38;7.57;;;;;;;;;;5081873;28;20403;-81
2023/12/29 06:16:19;;;;;;;9.07;8.20;;;;;;;;;;5080562;28;20372;-82
2023/12/29 06:18:45;;;;;;;8.38;7.63;;;;;;;;;;5081909;28;20383;-82
2023/12/29 06:21:11;;;;;;;9.57;7.93;;;;;;;;;;5080198;28;20434;-82
2023/12/29 06:23:37;;;;;;;8.82;8.02;;;;;;;;;;5081095;28;21073;-81
2023/12/29 06:26:17;;;;;;;8.52;7.80;;;;;;;;;;5080724;28;20387;-82
2023/12/29 06:28:43;;;;;;;9.35;8.45;;;;;;;;;;5081680;28;20376;-83
2023/12/29 06:31:09;;;;;;;9.70;8.70;;;;;;;;;;5080884;28;20926;-81
2023/12/29 06:33:35;;;;;;;9.38;8.48;;;;;;;;;;5080208;28;20391;-81
2023/12/29 06:36:01;;;;;;;8.77;7.97;;;;;;;;;;5061489;28;20466;-81
2023/12/29 06:38:27;;;;;;;8.57;7.80;;;;;;;;;;5078430;28;20391;-81
2023/12/29 06:40:53;;;;;;;9.10;8.30;;;;;;;;;;5079108;28;20734;-81
2023/12/29 06:43:19;;;;;;;9.07;7.93;;;;;;;;;;5092807;28;20882;-80
2023/12/29 06:45:45;;;;;;;8.73;7.93;;;;;;;;;;5102472;28;20378;-82
2023/12/29 06:48:11;;;;;;;8.63;7.93;;;;;;;;;;5104802;28;20388;-80
2023/12/29 06:50:37;;;;;;;8.93;8.13;;;;;;;;;;5088541;28;20473;-81
2023/12/29 06:53:07;;;;;;;9.10;8.20;;;;;;;;;;5107337;28;20500;-81
2023/12/29 06:55:33;;;;;;;9.27;8.38;;;;;;;;;;5107532;28;20397;-81
2023/12/29 06:57:59;;;;;;;9.48;8.57;;;;;;;;;;5107648;28;20370;-80
2023/12/29 07:00:25;;;;;;;9.63;8.65;;;;;;;;;;5105214;28;20413;-81
2023/12/29 07:02:51;;;;;;;9.68;8.77;;;;;;;;;;5104867;28;20421;-80
2023/12/29 07:05:17;;;;;;;9.27;8.35;;;;;;;;;;5103091;28;20402;-81
2023/12/29 07:07:43;;;;;;;9.43;8.63;;;;;;;;;;5095882;28;20387;-80
2023/12/29 07:10:09;;;;;;;10.48;9.57;;;;;;;;;;5081703;28;20887;-82
2023/12/29 07:12:35;;;;;;;10.05;9.15;;;;;;;;;;5081533;28;20400;-80
2023/12/29 07:15:01;;;;;;;10.05;9.07;;;;;;;;;;5082368;28;20372;-82
2023/12/29 07:17:27;;;;;;;10.35;9.35;;;;;;;;;;5082386;28;20745;-81
2023/12/29 07:19:53;;;;;;;9.67;8.77;;;;;;;;;;5082164;28;20382;-80
2023/12/29 07:22:19;;;;;;;9.82;8.93;;;;;;;;;;5083896;28;20378;-82
2023/12/29 07:24:45;;;;;;;10.32;9.20;;;;;;;;;;5082083;28;20404;-81
2023/12/29 07:27:11;;;;;;;10.57;9.10;;;;;;;;;;5082797;28;20375;-81
2023/12/29 07:29:37;;;;;;;9.93;9.02;;;;;;;;;;5082049;28;20379;-82
2023/12/29 07:32:03;;;;;;;10.00;9.10;;;;;;;;;;5085844;28;20379;-82
2023/12/29 07:34:31;;;;;;;9.98;9.07;;;;;;;;;;5085983;28;20461;-81
2023/12/29 07:36:58;;;;;;;10.50;9.60;;;;;;;;;;5082289;28;20913;-81
2023/12/29 07:39:24;;;;;;;10.10;8.93;;;;;;;;;;5080863;28;20418;-81
2023/12/29 07:41:50;;;;;;;10.10;9.20;;;;;;;;;;5084797;28;20403;-80
2023/12/29 07:44:17;;;;;;;10.05;9.10;;;;;;;;;;5067305;28;20415;-81
2023/12/29 07:46:44;;;;;;;10.75;9.65;;;;;;;;;;5083205;28;20384;-81
2023/12/29 07:49:10;;;;;;;9.65;8.75;;;;;;;;;;5059501;28;20391;-81
2023/12/29 07:51:47;;;;;;;10.20;9.20;;;;;;;;;;5077880;28;20406;-81
2023/12/29 07:54:13;;;;;;;10.98;9.88;;;;;;;;;;5078311;28;20399;-82
2023/12/29 07:56:39;;;;;;;9.73;8.82;;;;;;;;;;5078814;28;20425;-82
2023/12/29 07:59:06;;;;;;;11.57;9.15;;;;;;;;;;5080399;28;20376;-82
2023/12/29 08:01:32;;;;;;;10.10;9.10;;;;;;;;;;5079325;28;20380;-83
2023/12/29 08:03:58;;;;;;;9.65;8.73;;;;;;;;;;5078978;28;20418;-82
2023/12/29 08:06:24;;;;;;;10.23;9.23;;;;;;;;;;5079346;28;20723;-82
2023/12/29 08:08:50;;;;;;;9.57;8.55;;;;;;;;;;5078150;28;20390;-82
2023/12/29 08:11:16;;;;;;;10.13;9.18;;;;;;;;;;5077875;28;20439;-84
2023/12/29 08:13:47;;;;;;;9.90;8.90;;;;;;;;;;5077676;28;20456;-83
2023/12/29 08:16:13;;;;;;;9.30;8.32;;;;;;;;;;5076779;28;20448;-82
2023/12/29 08:18:39;;;;;;;9.73;8.73;;;;;;;;;;5077890;28;20372;-81
2023/12/29 08:21:05;;;;;;;9.70;8.80;;;;;;;;;;5078605;28;20406;-83
2023/12/29 08:23:31;;;;;;;9.68;8.82;;;;;;;;;;5076805;28;20381;-83
2023/12/29 08:25:58;;;;;;;9.90;8.90;;;;;;;;;;5076713;28;20402;-83
2023/12/29 08:28:24;;;;;;;11.15;9.98;;;;;;;;;;5077542;28;20382;-82
2023/12/29 08:30:50;;;;;;;10.73;9.63;;;;;;;;;;5059594;28;20434;-83
2023/12/29 08:33:16;;;;;;;11.07;9.68;;;;;;;;;;5078118;28;20400;-83
2023/12/29 08:35:42;;;;;;;9.85;8.85;;;;;;;;;;5077553;28;20729;-83
2023/12/29 08:38:08;;;;;;;9.82;8.75;;;;;;;;;;5077962;28;20383;-83
2023/12/29 08:40:36;;;;;;;9.77;8.60;;;;;;;;;;5077959;28;20400;-83
2023/12/29 08:43:01;;;;;;;9.68;8.68;;;;;;;;;;5078631;28;20447;-83
2023/12/29 08:45:28;;;;;;;9.13;8.23;;;;;;;;;;5076949;28;20402;-83
2023/12/29 08:47:54;;;;;;;9.70;8.85;;;;;;;;;;5077924;28;20520;-83
2023/12/29 08:50:21;;;;;;;8.68;7.97;;;;;;;;;;5077893;28;20400;-84
2023/12/29 08:52:47;;;;;;;9.05;8.25;;;;;;;;;;5077439;28;20954;-83
2023/12/29 08:55:13;;;;;;;9.03;8.10;;;;;;;;;;5078034;28;20548;-83
2023/12/29 08:57:39;;;;;;;8.82;7.97;;;;;;;;;;5077706;28;20423;-83
2023/12/29 09:00:06;;;;;;;10.02;8.70;;;;;;;;;;5077960;28;20466;-83
2023/12/29 09:02:32;;;;;;;9.43;8.52;;;;;;;;;;5077313;28;20375;-83
2023/12/29 09:04:58;;;;;;;8.50;7.70;;;;;;;;;;5075962;28;20430;-83
2023/12/29 09:07:24;;;;;;;8.50;7.70;;;;;;;;;;5077109;28;20868;-83
2023/12/29 09:09:50;;;;;;;8.10;7.40;;;;;;;;;;5076503;28;20435;-84
2023/12/29 09:12:15;;;;;;;7.90;7.20;;;;;;;;;;5076001;28;20429;-83
2023/12/29 09:14:41;;;;;;;7.22;6.63;;;;;;;;;;5075651;28;20402;-83
2023/12/29 09:17:07;;;;;;;8.35;7.55;;;;;;;;;;5075082;28;20742;-84
2023/12/29 09:19:33;;;;;;;7.80;7.10;;;;;;;;;;5076311;28;20392;-83
2023/12/29 09:21:59;;;;;;;7.85;7.05;;;;;;;;;;5076980;28;20394;-83
2023/12/29 09:24:25;;;;;;;7.03;6.32;;;;;;;;;;5076854;28;20391;-83
2023/12/29 09:26:52;;;;;;;7.00;6.40;;;;;;;;;;5075994;28;20387;-82
2023/12/29 09:29:18;;;;;;;6.82;6.18;;;;;;;;;;5074856;28;20379;-83
2023/12/29 09:31:44;;;;;;;7.25;6.22;;;;;;;;;;5076200;28;20891;-83
2023/12/29 09:34:10;;;;;;;7.32;6.63;;;;;;;;;;5075508;28;20400;-83
2023/12/29 09:36:36;;;;;;;6.70;5.68;;;;;;;;;;5077241;28;20714;-83
2023/12/29 09:39:02;;;;;;;6.38;5.78;;;;;;;;;;5076668;28;20436;-83
2023/12/29 09:41:31;;;;;;;6.90;6.20;;;;;;;;;;5078821;28;20408;-83
2023/12/29 09:43:58;;;;;;;6.43;5.82;;;;;;;;;;5077027;28;20392;-83
2023/12/29 09:46:25;;;;;;;6.38;5.78;;;;;;;;;;5076291;28;20384;-84
2023/12/29 09:48:52;;;;;;;5.68;5.18;;;;;;;;;;5077917;28;20379;-84
2023/12/29 09:51:22;;;;;;;5.95;5.22;;;;;;;;;;5077633;28;20376;-83
2023/12/29 09:53:49;;;;;;;6.22;5.35;;;;;;;;;;5075495;28;20495;-83
2023/12/29 09:56:15;;;;;;;7.60;5.20;;;;;;;;;;5074751;28;20375;-83
2023/12/29 09:58:42;;;;;;;5.47;5.07;;;;;;;;;;5074881;28;20833;-83
2023/12/29 10:01:08;;;;;;;5.50;5.00;;;;;;;;;;5075574;28;20394;-83
2023/12/29 10:03:34;;;;;;;5.32;4.93;;;;;;;;;;5079887;28;20383;-84
2023/12/29 10:06:08;;;;;;;6.17;5.10;;;;;;;;;;5080946;28;20467;-84
2023/12/29 10:08:34;;;;;;;5.50;4.90;;;;;;;;;;5076904;28;20919;-83
2023/12/29 10:11:01;;;;;;;5.00;4.60;;;;;;;;;;5077731;28;20858;-84
2023/12/29 10:13:29;;;;;;;5.18;4.78;;;;;;;;;;5077426;28;20471;-84
2023/12/29 10:16:00;;;;;;;5.43;4.95;;;;;;;;;;5077813;28;20429;-84
2023/12/29 10:18:46;;;;;;;5.65;5.13;;;;;;;;;;5077736;28;20424;-83
2023/12/29 10:21:18;;;;;;;5.00;4.57;;;;;;;;;;5077218;28;20380;-83
2023/12/29 10:23:50;;;;;;;4.50;4.10;;;;;;;;;;5078721;28;20372;-83
2023/12/29 10:26:17;;;;;;;4.97;4.57;;;;;;;;;;5077979;28;20380;-83
2023/12/29 10:28:43;;;;;;;5.00;4.50;;;;;;;;;;5079827;28;20384;-85
2023/12/29 10:31:10;;;;;;;4.15;3.85;;;;;;;;;;5078028;28;20387;-84
2023/12/29 10:33:36;;;;;;;4.30;3.90;;;;;;;;;;5076847;28;20435;-84
2023/12/29 10:36:03;;;;;;;4.18;3.78;;;;;;;;;;5075915;28;20383;-84
2023/12/29 10:38:30;;;;;;;4.00;3.70;;;;;;;;;;5085064;28;20382;-83
2023/12/29 10:41:16;;;;;;;4.07;3.65;;;;;;;;;;5094684;28;20377;-84
2023/12/29 10:43:43;;;;;;;3.70;3.40;;;;;;;;;;5094018;28;20381;-83
2023/12/29 10:46:10;;;;;;;3.83;3.40;;;;;;;;;;5094960;28;20492;-84
2023/12/29 10:48:37;;;;;;;3.53;3.22;;;;;;;;;;5098520;28;20385;-83
2023/12/29 10:51:06;;;;;;;3.70;3.40;;;;;;;;;;5080228;28;20418;-83
2023/12/29 10:53:33;;;;;;;3.87;3.40;;;;;;;;;;5097862;28;20410;-83
2023/12/29 10:55:59;;;;;;;3.65;3.35;;;;;;;;;;5099954;28;20380;-83
2023/12/29 10:58:29;;;;;;;3.55;3.25;;;;;;;;;;5101106;28;20374;-83
2023/12/29 11:00:59;;;;;;;3.70;3.40;;;;;;;;;;5099065;28;20431;-83
2023/12/29 11:03:25;;;;;;;3.97;3.58;;;;;;;;;;5098458;28;20438;-84
2023/12/29 11:05:52;;;;;;;3.63;3.33;;;;;;;;;;5099168;28;20416;-83
2023/12/29 11:08:18;;;;;;;4.57;3.50;;;;;;;;;;5099024;28;20380;-85
2023/12/29 11:10:45;;;;;;;3.30;3.00;;;;;;;;;;5098066;28;20407;-83
2023/12/29 11:13:13;;;;;;;4.65;3.20;;;;;;;;;;5097404;28;20451;-83
2023/12/29 11:15:42;;;;;;;3.55;3.25;;;;;;;;;;5097026;28;20374;-84
2023/12/29 11:18:09;;;;;;;3.60;3.30;;;;;;;;;;5097750;28;20384;-84
2023/12/29 11:20:36;;;;;;;3.35;3.15;;;;;;;;;;5098479;28;20374;-84
2023/12/29 11:23:04;;;;;;;3.40;3.10;;;;;;;;;;5100201;28;20398;-83
2023/12/29 11:25:30;;;;;;;3.53;3.23;;;;;;;;;;5099310;28;20382;-84
2023/12/29 11:27:56;;;;;;;3.20;2.90;;;;;;;;;;5094329;28;20466;-84
2023/12/29 11:30:22;;;;;;;2.95;2.65;;;;;;;;;;5079674;28;20391;-84
2023/12/29 11:33:10;;;;;;;3.08;2.80;;;;;;;;;;5077509;28;20453;-83
2023/12/29 11:35:49;;;;;;;3.20;2.70;;;;;;;;;;5077739;28;20822;-84
2023/12/29 11:38:16;;;;;;;3.00;2.70;;;;;;;;;;5077110;28;20418;-83
2023/12/29 11:40:45;;;;;;;3.10;2.78;;;;;;;;;;5076428;28;20391;-83
2023/12/29 11:43:14;;;;;;;3.30;3.00;;;;;;;;;;5076181;28;20757;-83
2023/12/29 11:45:40;;;;;;;3.45;2.55;;;;;;;;;;5077154;28;20468;-83
2023/12/29 11:48:06;;;;;;;2.65;2.45;;;;;;;;;;5076477;28;20776;-83
2023/12/29 11:50:34;;;;;;;3.25;2.90;;;;;;;;;;5077209;28;20718;-83
2023/12/29 11:53:00;;;;;;;2.80;2.60;;;;;;;;;;5076049;28;20399;-83
2023/12/29 11:55:30;;;;;;;2.40;2.20;;;;;;;;;;5079557;28;20849;-84
2023/12/29 11:57:57;;;;;;;2.55;2.33;;;;;;;;;;5077321;28;20459;-83
2023/12/29 12:00:46;;;;;;;3.40;2.57;;;;;;;;;;5075295;28;20368;-83
2023/12/29 12:03:25;;;;;;;2.80;2.45;;;;;;;;;;5076772;28;20441;-84
2023/12/29 12:05:52;;;;;;;3.20;2.90;;;;;;;;;;5077430;28;20723;-84
2023/12/29 12:08:44;;;;;;;2.50;2.30;;;;;;;;;;5076962;28;20488;-84
2023/12/29 12:11:28;;;;;;;2.47;2.25;;;;;;;;;;5072925;28;20453;-84
2023/12/29 12:13:55;;;;;;;2.60;2.30;;;;;;;;;;5076509;28;20471;-85
2023/12/29 12:16:40;;;;;;;2.72;2.53;;;;;;;;;;5074880;28;20376;-84
2023/12/29 12:19:07;;;;;;;2.60;2.40;;;;;;;;;;5078216;28;20375;-84
2023/12/29 12:21:33;;;;;;;2.60;2.40;;;;;;;;;;5080727;28;20841;-84
2023/12/29 12:24:00;;;;;;;2.50;2.30;;;;;;;;;;5077672;28;20379;-84
2023/12/29 12:26:26;;;;;;;2.35;2.15;;;;;;;;;;5076213;28;20455;-84
2023/12/29 12:28:55;;;;;;;2.40;2.20;;;;;;;;;;5075844;28;20384;-84
2023/12/29 12:31:21;;;;;;;2.90;2.50;;;;;;;;;;5076181;28;20402;-84
2023/12/29 12:33:55;;;;;;;2.45;2.22;;;;;;;;;;5075543;28;20411;-84
2023/12/29 12:36:21;;;;;;;2.55;2.35;;;;;;;;;;5076108;28;20381;-84
2023/12/29 12:38:53;;;;;;;3.65;2.60;;;;;;;;;;5075734;28;20461;-84
2023/12/29 12:41:20;;;;;;;3.40;2.72;;;;;;;;;;5074261;28;20476;-88
2023/12/29 12:43:50;;;;;;;2.95;2.75;;;;;;;;;;5074951;28;20379;-87
2023/12/29 12:46:16;;;;;;;3.20;2.90;;;;;;;;;;5076738;28;20368;-88
2023/12/29 12:48:43;;;;;;;2.65;2.40;;;;;;;;;;5074356;28;20371;-88
2023/12/29 12:51:10;;;;;;;2.80;2.60;;;;;;;;;;5074212;28;20413;-84
2023/12/29 12:53:40;;;;;;;3.15;2.70;;;;;;;;;;5075264;28;20435;-84
2023/12/29 12:56:07;;;;;;;3.30;2.65;;;;;;;;;;5074723;28;21844;-84
2023/12/29 12:58:34;;;;;;;2.90;2.60;;;;;;;;;;5074876;28;20745;-84
2023/12/29 13:01:00;;;;;;;2.58;2.38;;;;;;;;;;5075040;28;20433;-84
2023/12/29 13:03:26;;;;;;;2.63;2.42;;;;;;;;;;5075442;28;20453;-84
2023/12/29 13:05:53;;;;;;;4.07;2.90;;;;;;;;;;5074439;28;20463;-84
2023/12/29 13:08:20;;;;;;;2.72;2.53;;;;;;;;;;5074123;28;20411;-83
2023/12/29 13:10:47;;;;;;;2.60;2.40;;;;;;;;;;5072870;28;20395;-84
2023/12/29 13:13:14;;;;;;;2.60;2.40;;;;;;;;;;5073115;28;20400;-85
2023/12/29 13:15:49;;;;;;;2.38;2.17;;;;;;;;;;5075899;28;20380;-84
2023/12/29 13:18:16;;;;;;;2.40;2.20;;;;;;;;;;5075554;28;20375;-84
2023/12/29 13:20:48;;;;;;;2.45;2.25;;;;;;;;;;5076029;28;20376;-84
2023/12/29 13:23:14;;;;;;;2.97;2.58;;;;;;;;;;5075867;28;20375;-84
2023/12/29 13:25:43;;;;;;;3.70;2.60;;;;;;;;;;5075528;28;20717;-84
2023/12/29 13:28:09;;;;;;;2.58;2.17;;;;;;;;;;5076349;28;20742;-84
2023/12/29 13:30:37;;;;;;;2.80;2.60;;;;;;;;;;5075508;28;20387;-84
2023/12/29 13:33:16;;;;;;;2.30;2.10;;;;;;;;;;5075928;28;20403;-84
2023/12/29 13:35:48;;;;;;;2.70;2.50;;;;;;;;;;5076336;28;20389;-84
2023/12/29 13:38:38;;;;;;;3.85;3.17;;;;;;;;;;5075959;28;20376;-84
2023/12/29 13:41:11;;;;;;;2.67;2.40;;;;;;;;;;5065102;28;20459;-84
2023/12/29 13:43:42;;;;;;;2.00;1.80;;;;;;;;;;5075839;28;20396;-83
2023/12/29 13:46:09;;;;;;;2.40;2.20;;;;;;;;;;5076728;28;20376;-83
2023/12/29 13:48:35;;;;;;;2.35;2.15;;;;;;;;;;5075768;28;20842;-84
2023/12/29 13:51:01;;;;;;;2.30;2.10;;;;;;;;;;5076114;28;20399;-84
2023/12/29 13:53:27;;;;;;;2.47;2.20;;;;;;;;;;5075786;28;21053;-84
2023/12/29 13:55:53;;;;;;;2.40;2.20;;;;;;;;;;5075169;28;20398;-84
2023/12/29 13:58:19;;;;;;;2.30;2.03;;;;;;;;;;5075643;28;20853;-84
2023/12/29 14:00:46;;;;;;;2.20;2.00;;;;;;;;;;5075607;28;20459;-84
2023/12/29 14:03:16;;;;;;;2.33;2.10;;;;;;;;;;5075252;28;20815;-84
2023/12/29 14:05:45;;;;;;;2.00;1.67;;;;;;;;;;5075194;28;20430;-84
2023/12/29 14:08:19;;;;;;;2.75;2.15;;;;;;;;;;5074910;28;20389;-84
2023/12/29 14:10:45;;;;;;;2.00;1.80;;;;;;;;;;5075015;28;20425;-84
2023/12/29 14:13:15;;;;;;;2.00;1.80;;;;;;;;;;5075001;28;20400;-84
2023/12/29 14:15:51;;;;;;;1.90;1.75;;;;;;;;;;5075579;28;20383;-83
2023/12/29 14:18:16;;;;;;;2.10;1.83;;;;;;;;;;5074728;28;20384;-84
2023/12/29 14:20:42;;;;;;;3.72;2.20;;;;;;;;;;5074925;28;20387;-83
2023/12/29 14:23:10;;;;;;;2.10;1.90;;;;;;;;;;5078399;28;20378;-84
2023/12/29 14:25:37;;;;;;;1.70;1.50;;;;;;;;;;5078421;28;20379;-84
2023/12/29 14:28:03;;;;;;;1.92;1.73;;;;;;;;;;5077903;28;20375;-84
2023/12/29 14:30:31;;;;;;;2.10;1.88;;;;;;;;;;5077943;28;20741;-84
2023/12/29 14:33:00;;;;;;;1.80;1.70;;;;;;;;;;5078694;28;20403;-84
2023/12/29 14:35:26;;;;;;;2.88;2.33;;;;;;;;;;5078342;28;20382;-83
2023/12/29 14:37:52;;;;;;;2.97;2.78;;;;;;;;;;5077894;28;20379;-83
2023/12/29 14:40:19;;;;;;;2.70;2.50;;;;;;;;;;5078552;28;20394;-83